sensor_id;sensor_type;location;lat;lon;timestamp;pressure;altitude;pressure_sealevel;temperature;humidity
80137;BME280;69466;55.948;37.484;2023-07-24T00:00:22;98865.50;;;13.60;80.33
80137;BME280;69466;55.948;37.484;2023-07-24T00:02:48;98859.94;;;13.50;80.62
80137;BME280;69466;55.948;37.484;2023-07-24T00:05:13;98870.59;;;13.52;80.65
80137;BME280;69466;55.948;37.484;2023-07-24T00:07:39;98868.09;;;13.50;80.56
80137;BME280;69466;55.948;37.484;2023-07-24T00:10:05;98872.44;;;13.46;80.75
80137;BME280;69466;55.948;37.484;2023-07-24T00:12:32;98869.69;;;13.46;80.36
80137;BME280;69466;55.948;37.484;2023-07-24T00:14:58;98869.69;;;13.46;80.88
80137;BME280;69466;55.948;37.484;2023-07-24T00:17:24;98866.41;;;13.44;80.82
80137;BME280;69466;55.948;37.484;2023-07-24T00:19:51;98876.75;;;13.42;81.13
80137;BME280;69466;55.948;37.484;2023-07-24T00:22:17;98874.84;;;13.43;80.70
80137;BME280;69466;55.948;37.484;2023-07-24T00:24:43;98869.34;;;13.38;80.76
80137;BME280;69466;55.948;37.484;2023-07-24T00:27:09;98867.69;;;13.37;81.05
80137;BME280;69466;55.948;37.484;2023-07-24T00:29:35;98870.16;;;13.38;80.49
80137;BME280;69466;55.948;37.484;2023-07-24T00:32:02;98869.00;;;13.34;80.70
80137;BME280;69466;55.948;37.484;2023-07-24T00:34:28;98860.84;;;13.34;81.02
80137;BME280;69466;55.948;37.484;2023-07-24T00:36:54;98856.16;;;13.29;80.93
80137;BME280;69466;55.948;37.484;2023-07-24T00:39:20;98845.78;;;13.26;80.98
80137;BME280;69466;55.948;37.484;2023-07-24T00:41:46;98851.53;;;13.30;80.73
80137;BME280;69466;55.948;37.484;2023-07-24T00:44:12;98852.28;;;13.25;80.95
80137;BME280;69466;55.948;37.484;2023-07-24T00:46:37;98851.22;;;13.26;80.93
80137;BME280;69466;55.948;37.484;2023-07-24T00:49:04;98853.06;;;13.21;81.23
80137;BME280;69466;55.948;37.484;2023-07-24T00:51:32;98854.13;;;13.20;81.52
80137;BME280;69466;55.948;37.484;2023-07-24T00:54:00;98848.38;;;13.16;81.10
80137;BME280;69466;55.948;37.484;2023-07-24T00:56:27;98836.78;;;13.04;81.27
80137;BME280;69466;55.948;37.484;2023-07-24T00:58:54;98862.28;;;13.15;81.53
80137;BME280;69466;55.948;37.484;2023-07-24T01:01:23;98853.28;;;13.14;81.38
80137;BME280;69466;55.948;37.484;2023-07-24T01:03:51;98850.78;;;13.13;81.51
80137;BME280;69466;55.948;37.484;2023-07-24T01:06:17;98847.25;;;13.12;81.49
80137;BME280;69466;55.948;37.484;2023-07-24T01:08:43;98859.22;;;13.11;81.68
80137;BME280;69466;55.948;37.484;2023-07-24T01:11:24;98855.91;;;13.09;81.61
80137;BME280;69466;55.948;37.484;2023-07-24T01:14:09;98861.34;;;13.09;81.40
80137;BME280;69466;55.948;37.484;2023-07-24T01:16:41;98859.38;;;13.05;81.94
80137;BME280;69466;55.948;37.484;2023-07-24T01:19:40;98852.59;;;13.07;81.70
80137;BME280;69466;55.948;37.484;2023-07-24T01:25:18;98854.50;;;13.07;81.36
80137;BME280;69466;55.948;37.484;2023-07-24T01:27:48;98843.88;;;13.05;81.60
80137;BME280;69466;55.948;37.484;2023-07-24T01:30:18;98837.59;;;13.05;81.53
80137;BME280;69466;55.948;37.484;2023-07-24T01:32:44;98838.09;;;13.02;81.56
80137;BME280;69466;55.948;37.484;2023-07-24T01:35:10;98829.44;;;13.05;81.65
80137;BME280;69466;55.948;37.484;2023-07-24T01:37:37;98840.88;;;13.07;81.60
80137;BME280;69466;55.948;37.484;2023-07-24T01:40:09;98839.56;;;13.09;81.40
80137;BME280;69466;55.948;37.484;2023-07-24T01:42:36;98849.63;;;13.09;81.64
80137;BME280;69466;55.948;37.484;2023-07-24T01:45:03;98845.81;;;13.10;81.25
80137;BME280;69466;55.948;37.484;2023-07-24T01:47:32;98840.97;;;13.12;81.28
80137;BME280;69466;55.948;37.484;2023-07-24T01:49:58;98846.16;;;13.13;81.29
80137;BME280;69466;55.948;37.484;2023-07-24T01:52:25;98839.31;;;13.11;81.28
80137;BME280;69466;55.948;37.484;2023-07-24T01:54:51;98847.00;;;13.14;80.96
80137;BME280;69466;55.948;37.484;2023-07-24T01:57:18;98851.09;;;13.16;80.88
80137;BME280;69466;55.948;37.484;2023-07-24T01:59:45;98849.19;;;13.17;80.89
80137;BME280;69466;55.948;37.484;2023-07-24T02:02:11;98842.44;;;13.19;80.84
80137;BME280;69466;55.948;37.484;2023-07-24T02:04:37;98847.88;;;13.19;80.75
80137;BME280;69466;55.948;37.484;2023-07-24T02:07:04;98846.28;;;13.23;80.49
80137;BME280;69466;55.948;37.484;2023-07-24T02:09:30;98840.56;;;13.25;80.55
80137;BME280;69466;55.948;37.484;2023-07-24T02:11:56;98844.41;;;13.29;80.02
80137;BME280;69466;55.948;37.484;2023-07-24T02:14:23;98831.06;;;13.27;79.92
80137;BME280;69466;55.948;37.484;2023-07-24T02:16:51;98846.13;;;13.35;80.19
80137;BME280;69466;55.948;37.484;2023-07-24T02:19:17;98844.59;;;13.44;79.64
80137;BME280;69466;55.948;37.484;2023-07-24T02:22:03;98848.25;;;13.55;79.19
80137;BME280;69466;55.948;37.484;2023-07-24T02:24:33;98846.06;;;13.57;79.08
80137;BME280;69466;55.948;37.484;2023-07-24T02:27:00;98839.06;;;13.61;78.84
80137;BME280;69466;55.948;37.484;2023-07-24T02:29:26;98846.47;;;13.70;78.75
80137;BME280;69466;55.948;37.484;2023-07-24T02:31:53;98846.81;;;13.74;78.31
80137;BME280;69466;55.948;37.484;2023-07-24T02:34:19;98851.53;;;13.84;78.15
80137;BME280;69466;55.948;37.484;2023-07-24T02:36:50;98849.97;;;13.93;78.12
80137;BME280;69466;55.948;37.484;2023-07-24T02:39:16;98841.81;;;13.93;77.50
80137;BME280;69466;55.948;37.484;2023-07-24T02:41:42;98848.75;;;14.10;76.92
80137;BME280;69466;55.948;37.484;2023-07-24T02:44:08;98850.50;;;14.27;76.39
80137;BME280;69466;55.948;37.484;2023-07-24T02:46:34;98852.75;;;14.35;76.05
80137;BME280;69466;55.948;37.484;2023-07-24T02:49:00;98839.47;;;14.95;74.15
80137;BME280;69466;55.948;37.484;2023-07-24T02:51:26;98847.91;;;16.57;69.08
80137;BME280;69466;55.948;37.484;2023-07-24T02:53:53;98845.44;;;18.23;62.87
80137;BME280;69466;55.948;37.484;2023-07-24T02:56:20;98836.22;;;19.38;58.12
80137;BME280;69466;55.948;37.484;2023-07-24T02:58:46;98843.88;;;20.81;54.40
80137;BME280;69466;55.948;37.484;2023-07-24T03:01:13;98841.84;;;21.77;52.00
80137;BME280;69466;55.948;37.484;2023-07-24T03:03:40;98832.72;;;22.34;49.61
80137;BME280;69466;55.948;37.484;2023-07-24T03:06:07;98835.44;;;22.79;48.12
80137;BME280;69466;55.948;37.484;2023-07-24T03:08:33;98835.13;;;22.80;48.20
80137;BME280;69466;55.948;37.484;2023-07-24T03:11:00;98829.56;;;22.49;48.02
80137;BME280;69466;55.948;37.484;2023-07-24T03:13:27;98845.50;;;21.86;50.10
80137;BME280;69466;55.948;37.484;2023-07-24T03:15:57;98842.34;;;21.15;50.46
80137;BME280;69466;55.948;37.484;2023-07-24T03:18:25;98858.44;;;20.35;53.33
80137;BME280;69466;55.948;37.484;2023-07-24T03:20:51;98854.16;;;20.10;54.36
80137;BME280;69466;55.948;37.484;2023-07-24T03:23:17;98859.06;;;19.95;54.75
80137;BME280;69466;55.948;37.484;2023-07-24T03:25:44;98857.31;;;19.48;56.15
80137;BME280;69466;55.948;37.484;2023-07-24T03:28:10;98863.31;;;19.02;57.17
80137;BME280;69466;55.948;37.484;2023-07-24T03:30:37;98856.97;;;18.83;57.68
80137;BME280;69466;55.948;37.484;2023-07-24T03:33:03;98864.31;;;18.64;58.28
80137;BME280;69466;55.948;37.484;2023-07-24T03:35:31;98863.63;;;18.77;58.07
80137;BME280;69466;55.948;37.484;2023-07-24T03:37:57;98857.19;;;19.34;56.73
80137;BME280;69466;55.948;37.484;2023-07-24T03:40:23;98855.50;;;19.94;54.70
80137;BME280;69466;55.948;37.484;2023-07-24T03:42:49;98855.81;;;20.30;53.39
80137;BME280;69466;55.948;37.484;2023-07-24T03:45:15;98857.75;;;20.11;54.36
80137;BME280;69466;55.948;37.484;2023-07-24T03:47:42;98850.81;;;19.95;55.14
80137;BME280;69466;55.948;37.484;2023-07-24T03:50:08;98848.06;;;19.76;55.20
80137;BME280;69466;55.948;37.484;2023-07-24T03:52:34;98844.13;;;20.01;55.00
80137;BME280;69466;55.948;37.484;2023-07-24T03:55:00;98857.69;;;19.97;54.45
80137;BME280;69466;55.948;37.484;2023-07-24T03:57:26;98846.19;;;19.53;55.75
80137;BME280;69466;55.948;37.484;2023-07-24T03:59:51;98852.16;;;19.17;56.70
80137;BME280;69466;55.948;37.484;2023-07-24T04:02:17;98857.25;;;19.05;57.29
80137;BME280;69466;55.948;37.484;2023-07-24T04:04:44;98845.59;;;18.89;57.68
80137;BME280;69466;55.948;37.484;2023-07-24T04:07:10;98857.06;;;18.73;58.36
80137;BME280;69466;55.948;37.484;2023-07-24T04:09:36;98855.53;;;18.62;58.70
80137;BME280;69466;55.948;37.484;2023-07-24T04:12:02;98856.47;;;18.47;59.10
80137;BME280;69466;55.948;37.484;2023-07-24T04:14:28;98856.81;;;18.40;59.46
80137;BME280;69466;55.948;37.484;2023-07-24T04:16:54;98862.53;;;18.44;59.40
80137;BME280;69466;55.948;37.484;2023-07-24T04:19:21;98855.59;;;18.23;59.58
80137;BME280;69466;55.948;37.484;2023-07-24T04:21:46;98874.03;;;18.17;60.21
80137;BME280;69466;55.948;37.484;2023-07-24T04:24:12;98866.13;;;18.10;60.45
80137;BME280;69466;55.948;37.484;2023-07-24T04:26:38;98855.13;;;18.10;60.46
80137;BME280;69466;55.948;37.484;2023-07-24T04:29:05;98857.81;;;18.21;60.41
80137;BME280;69466;55.948;37.484;2023-07-24T04:31:31;98863.91;;;18.46;60.08
80137;BME280;69466;55.948;37.484;2023-07-24T04:33:57;98865.47;;;18.57;59.56
80137;BME280;69466;55.948;37.484;2023-07-24T04:36:24;98847.09;;;18.53;59.51
80137;BME280;69466;55.948;37.484;2023-07-24T04:38:50;98853.97;;;18.55;60.02
80137;BME280;69466;55.948;37.484;2023-07-24T04:41:16;98851.75;;;18.52;59.89
80137;BME280;69466;55.948;37.484;2023-07-24T04:43:43;98854.19;;;18.59;59.45
80137;BME280;69466;55.948;37.484;2023-07-24T04:46:09;98849.78;;;18.58;59.65
80137;BME280;69466;55.948;37.484;2023-07-24T04:48:34;98849.59;;;18.49;59.63
80137;BME280;69466;55.948;37.484;2023-07-24T04:51:00;98852.22;;;18.65;59.42
80137;BME280;69466;55.948;37.484;2023-07-24T04:53:26;98847.91;;;18.53;59.69
80137;BME280;69466;55.948;37.484;2023-07-24T04:55:53;98846.00;;;18.49;59.88
80137;BME280;69466;55.948;37.484;2023-07-24T04:58:19;98844.78;;;18.65;59.34
80137;BME280;69466;55.948;37.484;2023-07-24T05:00:45;98849.00;;;19.05;58.37
80137;BME280;69466;55.948;37.484;2023-07-24T05:03:10;98841.44;;;19.16;58.03
80137;BME280;69466;55.948;37.484;2023-07-24T05:05:38;98843.91;;;19.17;57.60
80137;BME280;69466;55.948;37.484;2023-07-24T05:08:04;98841.22;;;18.88;58.18
80137;BME280;69466;55.948;37.484;2023-07-24T05:10:35;98851.69;;;18.86;58.36
80137;BME280;69466;55.948;37.484;2023-07-24T05:13:00;98845.84;;;18.93;57.92
80137;BME280;69466;55.948;37.484;2023-07-24T05:15:26;98844.88;;;19.26;57.33
80137;BME280;69466;55.948;37.484;2023-07-24T05:17:52;98846.88;;;19.63;56.40
80137;BME280;69466;55.948;37.484;2023-07-24T05:20:18;98847.16;;;19.99;56.02
80137;BME280;69466;55.948;37.484;2023-07-24T05:22:44;98846.38;;;20.63;54.11
80137;BME280;69466;55.948;37.484;2023-07-24T05:25:10;98842.94;;;20.85;52.96
80137;BME280;69466;55.948;37.484;2023-07-24T05:27:37;98841.41;;;20.93;52.88
80137;BME280;69466;55.948;37.484;2023-07-24T05:30:04;98838.56;;;21.25;52.38
80137;BME280;69466;55.948;37.484;2023-07-24T05:32:31;98847.25;;;21.18;51.08
80137;BME280;69466;55.948;37.484;2023-07-24T05:34:57;98844.56;;;21.00;51.79
80137;BME280;69466;55.948;37.484;2023-07-24T05:37:23;98848.47;;;20.85;51.68
80137;BME280;69466;55.948;37.484;2023-07-24T05:39:48;98842.22;;;20.79;52.16
80137;BME280;69466;55.948;37.484;2023-07-24T05:42:14;98842.06;;;20.44;52.06
80137;BME280;69466;55.948;37.484;2023-07-24T05:44:40;98838.50;;;20.24;52.96
80137;BME280;69466;55.948;37.484;2023-07-24T05:47:06;98847.09;;;20.04;53.55
80137;BME280;69466;55.948;37.484;2023-07-24T05:49:32;98844.94;;;20.01;54.04
80137;BME280;69466;55.948;37.484;2023-07-24T05:51:58;98848.22;;;19.84;54.33
80137;BME280;69466;55.948;37.484;2023-07-24T05:54:23;98841.25;;;19.73;54.67
80137;BME280;69466;55.948;37.484;2023-07-24T05:56:49;98836.47;;;19.60;54.90
80137;BME280;69466;55.948;37.484;2023-07-24T05:59:17;98844.28;;;19.53;55.10
80137;BME280;69466;55.948;37.484;2023-07-24T06:01:44;98841.72;;;19.38;55.48
80137;BME280;69466;55.948;37.484;2023-07-24T06:04:09;98840.88;;;19.19;56.32
80137;BME280;69466;55.948;37.484;2023-07-24T06:06:35;98849.22;;;19.09;56.62
80137;BME280;69466;55.948;37.484;2023-07-24T06:09:02;98837.53;;;18.98;57.06
80137;BME280;69466;55.948;37.484;2023-07-24T06:11:28;98833.22;;;18.92;57.76
80137;BME280;69466;55.948;37.484;2023-07-24T06:13:54;98843.50;;;18.81;59.01
80137;BME280;69466;55.948;37.484;2023-07-24T06:16:20;98845.06;;;18.64;58.88
80137;BME280;69466;55.948;37.484;2023-07-24T06:18:46;98846.56;;;18.51;59.81
80137;BME280;69466;55.948;37.484;2023-07-24T06:21:13;98841.72;;;18.38;59.66
80137;BME280;69466;55.948;37.484;2023-07-24T06:23:38;98840.13;;;18.32;60.24
80137;BME280;69466;55.948;37.484;2023-07-24T06:26:04;98853.88;;;18.32;59.68
80137;BME280;69466;55.948;37.484;2023-07-24T06:28:31;98841.03;;;18.22;59.90
80137;BME280;69466;55.948;37.484;2023-07-24T06:30:59;98849.56;;;18.21;60.18
80137;BME280;69466;55.948;37.484;2023-07-24T06:33:24;98849.00;;;18.24;60.42
80137;BME280;69466;55.948;37.484;2023-07-24T06:35:51;98852.31;;;18.21;60.69
80137;BME280;69466;55.948;37.484;2023-07-24T06:38:18;98848.75;;;18.20;61.76
80137;BME280;69466;55.948;37.484;2023-07-24T06:40:47;98852.09;;;18.12;62.13
80137;BME280;69466;55.948;37.484;2023-07-24T06:43:12;98854.56;;;18.13;61.11
80137;BME280;69466;55.948;37.484;2023-07-24T06:45:38;98857.81;;;18.21;61.38
80137;BME280;69466;55.948;37.484;2023-07-24T06:48:04;98856.56;;;18.37;61.04
80137;BME280;69466;55.948;37.484;2023-07-24T06:50:31;98847.47;;;18.41;61.19
80137;BME280;69466;55.948;37.484;2023-07-24T06:52:57;98854.44;;;18.63;60.88
80137;BME280;69466;55.948;37.484;2023-07-24T06:55:23;98848.88;;;18.68;60.07
80137;BME280;69466;55.948;37.484;2023-07-24T06:57:49;98841.41;;;18.97;60.51
80137;BME280;69466;55.948;37.484;2023-07-24T07:00:15;98852.69;;;19.19;59.28
80137;BME280;69466;55.948;37.484;2023-07-24T07:02:41;98842.66;;;19.28;59.25
80137;BME280;69466;55.948;37.484;2023-07-24T07:05:06;98843.78;;;19.51;58.98
80137;BME280;69466;55.948;37.484;2023-07-24T07:07:33;98843.53;;;19.66;57.89
80137;BME280;69466;55.948;37.484;2023-07-24T07:09:58;98847.03;;;19.72;57.49
80137;BME280;69466;55.948;37.484;2023-07-24T07:12:24;98840.13;;;19.74;57.38
80137;BME280;69466;55.948;37.484;2023-07-24T07:14:50;98842.00;;;19.79;56.64
80137;BME280;69466;55.948;37.484;2023-07-24T07:17:16;98840.84;;;19.80;56.56
80137;BME280;69466;55.948;37.484;2023-07-24T07:19:43;98842.06;;;19.92;55.16
80137;BME280;69466;55.948;37.484;2023-07-24T07:22:08;98830.34;;;20.01;54.71
80137;BME280;69466;55.948;37.484;2023-07-24T07:24:34;98838.53;;;20.06;54.68
80137;BME280;69466;55.948;37.484;2023-07-24T07:27:00;98825.13;;;19.99;54.85
80137;BME280;69466;55.948;37.484;2023-07-24T07:29:26;98847.28;;;20.08;55.22
80137;BME280;69466;55.948;37.484;2023-07-24T07:31:52;98792.22;;;19.57;54.40
80137;BME280;69466;55.948;37.484;2023-07-24T07:34:17;98844.41;;;19.80;55.78
80137;BME280;69466;55.948;37.484;2023-07-24T07:36:43;98843.53;;;19.85;56.30
80137;BME280;69466;55.948;37.484;2023-07-24T07:39:11;98834.84;;;19.78;56.13
80137;BME280;69466;55.948;37.484;2023-07-24T07:41:37;98837.88;;;19.76;56.09
80137;BME280;69466;55.948;37.484;2023-07-24T07:44:04;98830.09;;;19.65;55.70
80137;BME280;69466;55.948;37.484;2023-07-24T07:46:30;98834.63;;;19.74;56.68
80137;BME280;69466;55.948;37.484;2023-07-24T07:48:56;98834.00;;;19.96;54.96
80137;BME280;69466;55.948;37.484;2023-07-24T07:51:21;98831.69;;;19.84;55.47
80137;BME280;69466;55.948;37.484;2023-07-24T07:53:55;98841.03;;;19.88;55.75
80137;BME280;69466;55.948;37.484;2023-07-24T07:56:23;98834.97;;;19.86;55.78
80137;BME280;69466;55.948;37.484;2023-07-24T07:58:50;98833.88;;;19.69;56.48
80137;BME280;69466;55.948;37.484;2023-07-24T08:01:16;98831.47;;;19.62;57.93
80137;BME280;69466;55.948;37.484;2023-07-24T08:03:41;98821.22;;;19.49;58.59
80137;BME280;69466;55.948;37.484;2023-07-24T08:06:07;98826.38;;;19.56;58.36
80137;BME280;69466;55.948;37.484;2023-07-24T08:08:33;98834.78;;;19.40;60.02
80137;BME280;69466;55.948;37.484;2023-07-24T08:11:07;98828.59;;;19.30;58.99
80137;BME280;69466;55.948;37.484;2023-07-24T08:13:34;98823.09;;;19.30;59.36
80137;BME280;69466;55.948;37.484;2023-07-24T08:16:00;98828.16;;;19.23;59.49
80137;BME280;69466;55.948;37.484;2023-07-24T08:18:28;98828.50;;;19.16;59.16
80137;BME280;69466;55.948;37.484;2023-07-24T08:20:53;98819.81;;;19.09;59.88
80137;BME280;69466;55.948;37.484;2023-07-24T08:23:21;98824.72;;;19.12;60.06
80137;BME280;69466;55.948;37.484;2023-07-24T08:25:54;98834.06;;;19.11;60.65
80137;BME280;69466;55.948;37.484;2023-07-24T08:28:21;98821.63;;;19.19;60.98
80137;BME280;69466;55.948;37.484;2023-07-24T08:30:56;98800.47;;;18.95;60.79
80137;BME280;69466;55.948;37.484;2023-07-24T08:33:22;98815.13;;;18.86;61.89
80137;BME280;69466;55.948;37.484;2023-07-24T08:36:00;98821.06;;;18.74;62.45
80137;BME280;69466;55.948;37.484;2023-07-24T08:38:26;98821.22;;;18.59;62.87
80137;BME280;69466;55.948;37.484;2023-07-24T08:41:04;98819.91;;;18.51;63.56
80137;BME280;69466;55.948;37.484;2023-07-24T08:43:30;98828.25;;;18.41;64.26
80137;BME280;69466;55.948;37.484;2023-07-24T08:45:58;98835.94;;;18.39;64.34
80137;BME280;69466;55.948;37.484;2023-07-24T08:48:33;98833.53;;;18.33;64.36
80137;BME280;69466;55.948;37.484;2023-07-24T08:51:05;98829.25;;;18.22;64.20
80137;BME280;69466;55.948;37.484;2023-07-24T08:53:36;98826.06;;;18.09;64.88
80137;BME280;69466;55.948;37.484;2023-07-24T08:56:07;98830.84;;;17.94;65.97
80137;BME280;69466;55.948;37.484;2023-07-24T08:58:33;98815.03;;;17.81;65.85
80137;BME280;69466;55.948;37.484;2023-07-24T09:01:03;98822.38;;;17.90;66.03
80137;BME280;69466;55.948;37.484;2023-07-24T09:03:35;98816.31;;;17.88;66.89
80137;BME280;69466;55.948;37.484;2023-07-24T09:06:01;98804.91;;;17.76;66.66
80137;BME280;69466;55.948;37.484;2023-07-24T09:08:40;98818.56;;;17.86;67.61
80137;BME280;69466;55.948;37.484;2023-07-24T09:11:08;98804.84;;;17.86;67.35
80137;BME280;69466;55.948;37.484;2023-07-24T09:13:38;98813.53;;;17.93;68.26
80137;BME280;69466;55.948;37.484;2023-07-24T09:16:06;98809.16;;;17.92;68.42
80137;BME280;69466;55.948;37.484;2023-07-24T09:18:42;98805.31;;;17.93;67.83
80137;BME280;69466;55.948;37.484;2023-07-24T09:21:09;98799.28;;;17.96;67.42
80137;BME280;69466;55.948;37.484;2023-07-24T09:23:35;98797.91;;;17.94;68.40
80137;BME280;69466;55.948;37.484;2023-07-24T09:26:05;98796.75;;;18.00;67.14
80137;BME280;69466;55.948;37.484;2023-07-24T09:28:33;98791.53;;;17.98;66.66
80137;BME280;69466;55.948;37.484;2023-07-24T09:31:01;98779.97;;;18.01;66.48
80137;BME280;69466;55.948;37.484;2023-07-24T09:33:35;98789.72;;;18.17;67.02
80137;BME280;69466;55.948;37.484;2023-07-24T09:36:04;98780.41;;;18.19;66.97
80137;BME280;69466;55.948;37.484;2023-07-24T09:38:30;98765.28;;;18.16;65.98
80137;BME280;69466;55.948;37.484;2023-07-24T09:40:57;98769.38;;;18.24;66.04
80137;BME280;69466;55.948;37.484;2023-07-24T09:43:25;98745.16;;;18.26;65.95
80137;BME280;69466;55.948;37.484;2023-07-24T09:45:52;98753.69;;;18.53;65.62
80137;BME280;69466;55.948;37.484;2023-07-24T09:48:20;98746.16;;;18.64;65.75
80137;BME280;69466;55.948;37.484;2023-07-24T09:50:48;98738.06;;;18.72;65.31
80137;BME280;69466;55.948;37.484;2023-07-24T09:53:20;98740.00;;;18.72;65.86
80137;BME280;69466;55.948;37.484;2023-07-24T09:55:56;98735.38;;;18.67;65.40
80137;BME280;69466;55.948;37.484;2023-07-24T09:58:23;98729.22;;;18.51;65.84
80137;BME280;69466;55.948;37.484;2023-07-24T10:00:50;98733.31;;;18.30;65.97
80137;BME280;69466;55.948;37.484;2023-07-24T10:03:17;98729.56;;;18.21;66.75
80137;BME280;69466;55.948;37.484;2023-07-24T10:05:46;98714.91;;;18.31;66.81
80137;BME280;69466;55.948;37.484;2023-07-24T10:08:15;98714.63;;;18.32;66.73
80137;BME280;69466;55.948;37.484;2023-07-24T10:10:42;98713.91;;;18.45;66.87
80137;BME280;69466;55.948;37.484;2023-07-24T10:13:09;98706.00;;;18.39;67.43
80137;BME280;69466;55.948;37.484;2023-07-24T10:15:42;98705.19;;;18.38;67.36
80137;BME280;69466;55.948;37.484;2023-07-24T10:18:09;98698.38;;;18.36;67.93
80137;BME280;69466;55.948;37.484;2023-07-24T10:20:37;98697.53;;;18.35;68.64
80137;BME280;69466;55.948;37.484;2023-07-24T10:23:05;98703.97;;;18.26;68.60
80137;BME280;69466;55.948;37.484;2023-07-24T10:25:32;98687.09;;;18.13;67.63
80137;BME280;69466;55.948;37.484;2023-07-24T10:28:09;98690.38;;;18.10;68.05
80137;BME280;69466;55.948;37.484;2023-07-24T10:30:37;98686.19;;;17.94;68.46
80137;BME280;69466;55.948;37.484;2023-07-24T10:33:33;98696.19;;;17.80;69.61
80137;BME280;69466;55.948;37.484;2023-07-24T10:36:07;98696.91;;;17.62;69.73
80137;BME280;69466;55.948;37.484;2023-07-24T10:38:37;98692.63;;;17.46;70.90
80137;BME280;69466;55.948;37.484;2023-07-24T10:41:05;98688.97;;;17.21;71.62
80137;BME280;69466;55.948;37.484;2023-07-24T10:43:41;98693.94;;;17.14;71.93
80137;BME280;69466;55.948;37.484;2023-07-24T10:46:08;98692.91;;;17.05;72.09
80137;BME280;69466;55.948;37.484;2023-07-24T10:48:34;98677.34;;;16.96;72.47
80137;BME280;69466;55.948;37.484;2023-07-24T10:51:06;98689.47;;;16.90;72.59
80137;BME280;69466;55.948;37.484;2023-07-24T10:53:34;98681.78;;;16.87;72.04
80137;BME280;69466;55.948;37.484;2023-07-24T10:56:00;98679.88;;;16.87;72.01
80137;BME280;69466;55.948;37.484;2023-07-24T10:58:27;98675.78;;;16.84;72.33
80137;BME280;69466;55.948;37.484;2023-07-24T11:00:53;98682.09;;;16.85;72.19
80137;BME280;69466;55.948;37.484;2023-07-24T11:03:21;98674.41;;;16.82;72.67
80137;BME280;69466;55.948;37.484;2023-07-24T11:05:47;98666.19;;;16.82;72.37
80137;BME280;69466;55.948;37.484;2023-07-24T11:08:18;98675.22;;;16.82;73.16
80137;BME280;69466;55.948;37.484;2023-07-24T11:10:49;98668.09;;;16.87;72.81
80137;BME280;69466;55.948;37.484;2023-07-24T11:13:19;98663.22;;;16.78;73.00
80137;BME280;69466;55.948;37.484;2023-07-24T11:15:47;98657.44;;;16.80;73.18
80137;BME280;69466;55.948;37.484;2023-07-24T11:18:13;98657.13;;;16.87;72.98
80137;BME280;69466;55.948;37.484;2023-07-24T11:20:47;98642.09;;;16.79;73.41
80137;BME280;69466;55.948;37.484;2023-07-24T11:23:14;98656.91;;;16.78;73.57
80137;BME280;69466;55.948;37.484;2023-07-24T11:25:40;98654.16;;;16.78;73.48
80137;BME280;69466;55.948;37.484;2023-07-24T11:28:07;98647.91;;;16.72;74.31
80137;BME280;69466;55.948;37.484;2023-07-24T11:30:34;98634.53;;;16.61;74.23
80137;BME280;69466;55.948;37.484;2023-07-24T11:33:03;98648.81;;;16.58;74.69
80137;BME280;69466;55.948;37.484;2023-07-24T11:35:32;98645.50;;;16.56;74.85
80137;BME280;69466;55.948;37.484;2023-07-24T11:37:58;98647.41;;;16.60;75.23
80137;BME280;69466;55.948;37.484;2023-07-24T11:40:32;98634.25;;;16.67;74.52
80137;BME280;69466;55.948;37.484;2023-07-24T11:42:59;98638.59;;;16.68;74.75
80137;BME280;69466;55.948;37.484;2023-07-24T11:45:24;98638.88;;;16.72;74.54
80137;BME280;69466;55.948;37.484;2023-07-24T11:47:50;98622.63;;;16.86;74.93
80137;BME280;69466;55.948;37.484;2023-07-24T11:50:20;98627.25;;;16.90;74.46
80137;BME280;69466;55.948;37.484;2023-07-24T11:52:50;98626.13;;;16.91;74.14
80137;BME280;69466;55.948;37.484;2023-07-24T11:55:19;98625.28;;;16.96;73.72
80137;BME280;69466;55.948;37.484;2023-07-24T12:00:23;98615.00;;;17.16;73.74
80137;BME280;69466;55.948;37.484;2023-07-24T12:02:50;98615.47;;;17.23;73.26
80137;BME280;69466;55.948;37.484;2023-07-24T12:05:16;98602.84;;;17.27;73.11
80137;BME280;69466;55.948;37.484;2023-07-24T12:07:43;98600.25;;;17.41;72.80
80137;BME280;69466;55.948;37.484;2023-07-24T12:10:12;98603.19;;;17.50;72.97
80137;BME280;69466;55.948;37.484;2023-07-24T12:12:46;98580.78;;;17.38;73.53
80137;BME280;69466;55.948;37.484;2023-07-24T12:15:14;98590.53;;;17.54;73.37
80137;BME280;69466;55.948;37.484;2023-07-24T12:17:40;98584.31;;;17.72;72.32
80137;BME280;69466;55.948;37.484;2023-07-24T12:20:08;98584.50;;;17.81;72.07
80137;BME280;69466;55.948;37.484;2023-07-24T12:22:36;98575.16;;;17.82;71.81
80137;BME280;69466;55.948;37.484;2023-07-24T12:25:04;98583.16;;;17.78;72.44
80137;BME280;69466;55.948;37.484;2023-07-24T12:27:32;98585.78;;;17.88;72.16
80137;BME280;69466;55.948;37.484;2023-07-24T12:30:00;98585.25;;;17.86;72.14
80137;BME280;69466;55.948;37.484;2023-07-24T12:32:27;98565.69;;;17.69;72.52
80137;BME280;69466;55.948;37.484;2023-07-24T12:34:54;98578.25;;;17.75;72.41
80137;BME280;69466;55.948;37.484;2023-07-24T12:37:20;98579.41;;;17.69;73.08
80137;BME280;69466;55.948;37.484;2023-07-24T12:39:48;98563.75;;;17.69;72.60
80137;BME280;69466;55.948;37.484;2023-07-24T12:42:15;98566.44;;;17.75;72.21
80137;BME280;69466;55.948;37.484;2023-07-24T12:44:41;98574.16;;;17.73;71.99
80137;BME280;69466;55.948;37.484;2023-07-24T12:47:08;98566.88;;;17.63;72.01
80137;BME280;69466;55.948;37.484;2023-07-24T12:49:35;98569.00;;;17.66;71.82
80137;BME280;69466;55.948;37.484;2023-07-24T12:52:02;98567.09;;;17.66;71.68
80137;BME280;69466;55.948;37.484;2023-07-24T12:54:28;98551.28;;;17.58;72.24
80137;BME280;69466;55.948;37.484;2023-07-24T12:56:54;98557.84;;;17.57;72.26